Time;durP1;ratioP1;P1;durP2;ratioP2;P2;SDS_P1;SDS_P2;PMS_P1;PMS_P2;Temp;Humidity;BMP_temperature;BMP_pressure;BME280_temperature;BME280_humidity;BME280_pressure;Samples;Min_cycle;Max_cycle;Signal;HPM_P1;HPM_P2
2023/03/31 00:00:35;;;;;;;8.82;3.90;;;14.30;82.20;;;;;;5055585;28;20482;-80
2023/03/31 00:03:01;;;;;;;13.40;4.45;;;14.30;82.30;;;;;;5055411;28;20448;-80
2023/03/31 00:05:27;;;;;;;14.38;4.60;;;14.20;83.90;;;;;;5056739;28;20021;-80
2023/03/31 00:07:59;;;;;;;10.82;3.42;;;14.20;84.50;;;;;;5056347;28;20091;-80
2023/03/31 00:10:34;;;;;;;12.30;4.32;;;14.20;84.30;;;;;;5054911;28;20037;-82
2023/03/31 00:13:01;;;;;;;10.88;4.25;;;14.20;84.00;;;;;;5055467;28;20036;-81
2023/03/31 00:15:27;;;;;;;14.07;3.60;;;14.20;82.80;;;;;;5055608;28;20017;-80
2023/03/31 00:17:53;;;;;;;11.70;4.20;;;14.20;83.10;;;;;;5056426;28;20021;-81
2023/03/31 00:20:19;;;;;;;10.35;4.10;;;14.20;83.30;;;;;;5056240;28;20032;-81
2023/03/31 00:22:45;;;;;;;9.88;3.60;;;14.10;84.10;;;;;;5057124;28;20123;-81
2023/03/31 00:25:15;;;;;;;10.30;3.90;;;14.20;84.90;;;;;;5055241;28;20097;-81
2023/03/31 00:27:43;;;;;;;9.10;4.10;;;14.10;85.70;;;;;;5055605;28;20158;-82
2023/03/31 00:30:09;;;;;;;7.03;3.70;;;14.10;86.40;;;;;;5056243;28;20029;-81
2023/03/31 00:32:35;;;;;;;8.98;3.58;;;14.10;87.40;;;;;;5056569;28;20110;-82
2023/03/31 00:35:01;;;;;;;8.95;3.85;;;14.00;88.70;;;;;;5056295;28;20048;-81
2023/03/31 00:37:28;;;;;;;17.10;7.28;;;14.00;90.20;;;;;;5055133;28;20021;-79
2023/03/31 00:39:55;;;;;;;11.57;4.10;;;13.90;90.60;;;;;;5055951;28;20109;-83
2023/03/31 00:42:21;;;;;;;13.00;3.53;;;13.90;91.40;;;;;;5055151;28;20033;-80
2023/03/31 00:45:18;;;;;;;11.70;4.03;;;13.80;92.40;;;;;;5053929;28;20716;-81
2023/03/31 00:48:10;;;;;;;11.00;4.50;;;13.80;93.00;;;;;;5055730;28;20110;-82
2023/03/31 00:50:45;;;;;;;10.18;4.97;;;13.80;93.80;;;;;;5050293;28;20048;-82
2023/03/31 00:53:15;;;;;;;10.27;4.88;;;13.80;94.50;;;;;;5055957;28;20063;-82
2023/03/31 00:55:49;;;;;;;12.93;6.22;;;13.80;96.00;;;;;;5056247;28;20017;-82
2023/03/31 00:58:19;;;;;;;17.38;7.43;;;13.70;95.00;;;;;;5055866;28;20041;-81
2023/03/31 01:00:52;;;;;;;14.70;5.88;;;13.70;95.00;;;;;;5054294;28;20032;-80
2023/03/31 01:03:21;;;;;;;17.25;6.18;;;13.70;94.30;;;;;;5054882;28;20024;-80
2023/03/31 01:06:09;;;;;;;13.75;4.40;;;13.70;93.60;;;;;;5055235;28;20028;-82
2023/03/31 01:08:36;;;;;;;16.42;4.15;;;13.80;91.60;;;;;;5054667;28;20035;-80
2023/03/31 01:11:08;;;;;;;9.90;3.20;;;13.90;90.20;;;;;;5054324;28;20033;-81
2023/03/31 01:13:35;;;;;;;;;;;14.00;89.70;;;;;;5056178;28;20333;-80
2023/03/31 01:16:01;;;;;;;6.93;2.72;;;14.30;82.30;;;;;;5054016;28;19905;-81
2023/03/31 01:18:28;;;;;;;9.57;2.70;;;14.30;81.70;;;;;;5054526;28;20048;-82
2023/03/31 01:21:17;;;;;;;15.95;3.65;;;14.40;80.20;;;;;;5054208;28;20024;-81
2023/03/31 01:23:55;;;;;;;8.75;3.13;;;14.40;80.40;;;;;;5054418;28;20025;-82
2023/03/31 01:26:26;;;;;;;7.13;2.63;;;14.40;80.70;;;;;;5053963;28;20056;-83
2023/03/31 01:29:12;;;;;;;10.45;3.42;;;14.30;80.30;;;;;;5054143;28;20024;-80
2023/03/31 01:32:01;;;;;;;11.73;3.30;;;14.30;81.00;;;;;;5055536;28;20025;-83
2023/03/31 01:34:57;;;;;;;11.60;3.20;;;14.20;81.00;;;;;;5043842;28;20130;-83
2023/03/31 01:37:55;;;;;;;8.07;2.80;;;14.20;81.10;;;;;;5053893;28;20371;-82
2023/03/31 01:40:51;;;;;;;11.48;3.30;;;14.20;80.40;;;;;;5055029;28;20025;-82
2023/03/31 01:43:28;;;;;;;7.20;2.95;;;14.20;80.20;;;;;;5055386;28;20021;-80
2023/03/31 01:46:01;;;;;;;9.07;2.60;;;14.20;78.60;;;;;;5038424;28;20044;-80
2023/03/31 01:48:38;;;;;;;6.43;2.55;;;14.30;76.80;;;;;;5053498;28;20495;-82
2023/03/31 01:51:37;;;;;;;6.40;2.22;;;14.40;76.20;;;;;;5053780;28;20036;-80
2023/03/31 01:54:12;;;;;;;9.15;2.05;;;14.40;75.40;;;;;;5054075;28;20037;-82
2023/03/31 01:56:42;;;;;;;10.10;2.15;;;14.40;74.80;;;;;;5054377;28;20079;-80
2023/03/31 01:59:13;;;;;;;4.55;2.00;;;14.40;75.30;;;;;;5052755;28;20483;-82
2023/03/31 02:01:51;;;;;;;5.95;1.77;;;14.40;74.50;;;;;;5054776;28;20028;-81
2023/03/31 02:04:29;;;;;;;6.20;1.50;;;14.50;73.00;;;;;;5053399;28;20025;-82
2023/03/31 02:07:03;;;;;;;7.32;2.15;;;14.50;72.20;;;;;;5053714;28;20196;-82
2023/03/31 02:09:35;;;;;;;6.95;1.65;;;14.50;72.60;;;;;;5053148;28;20363;-82
2023/03/31 02:12:03;;;;;;;;;;;14.40;72.70;;;;;;5053956;28;20017;-81
2023/03/31 02:14:30;;;;;;;4.15;1.90;;;14.40;73.10;;;;;;5052926;28;20347;-82
2023/03/31 02:16:58;;;;;;;6.28;1.73;;;14.30;73.80;;;;;;5053021;28;20107;-81
2023/03/31 02:19:28;;;;;;;2.85;1.45;;;14.30;74.30;;;;;;5054836;28;20024;-80
2023/03/31 02:21:54;;;;;;;7.90;2.20;;;14.30;76.30;;;;;;5054626;28;20092;-80
2023/03/31 02:24:24;;;;;;;6.65;2.33;;;14.20;80.10;;;;;;5052340;28;20533;-81
2023/03/31 02:27:05;;;;;;;8.10;2.50;;;14.00;84.80;;;;;;5054287;28;20096;-80
2023/03/31 02:29:31;;;;;;;7.30;2.50;;;13.90;86.60;;;;;;5054278;28;20038;-80
2023/03/31 02:32:25;;;;;;;8.07;2.22;;;13.80;86.90;;;;;;5052806;28;20025;-81
2023/03/31 02:34:52;;;;;;;5.45;2.40;;;13.80;86.50;;;;;;5053198;28;20039;-80
2023/03/31 02:37:18;;;;;;;8.18;2.42;;;13.80;86.60;;;;;;5052644;28;20017;-81
2023/03/31 02:39:47;;;;;;;5.60;2.67;;;13.80;86.80;;;;;;5052971;28;20439;-80
2023/03/31 02:42:13;;;;;;;9.93;2.67;;;13.80;86.90;;;;;;5052507;28;20025;-80
2023/03/31 02:44:39;;;;;;;8.70;2.50;;;13.80;86.70;;;;;;5052601;28;20021;-82
2023/03/31 02:47:08;;;;;;;10.57;2.03;;;13.80;86.10;;;;;;5052815;28;20478;-81
2023/03/31 02:49:37;;;;;;;7.07;2.63;;;13.80;86.20;;;;;;5052378;28;20025;-80
2023/03/31 02:52:30;;;;;;;4.22;1.88;;;13.80;86.00;;;;;;5053786;28;20013;-81
2023/03/31 02:55:42;;;;;;;5.00;2.17;;;13.90;84.50;;;;;;5052989;28;20021;-80
2023/03/31 02:58:39;;;;;;;7.63;2.25;;;13.90;83.40;;;;;;5050831;28;20041;-80
2023/03/31 03:01:20;;;;;;;7.93;2.33;;;14.00;83.10;;;;;;5051872;28;20024;-80
2023/03/31 03:03:55;;;;;;;9.15;3.90;;;14.00;82.90;;;;;;5053958;28;20074;-82
2023/03/31 03:06:52;;;;;;;7.88;2.83;;;14.00;82.80;;;;;;5052755;28;20033;-81
2023/03/31 03:09:52;;;;;;;7.50;2.00;;;14.00;82.70;;;;;;5048516;28;20040;-80
2023/03/31 03:12:36;;;;;;;7.50;2.40;;;14.00;82.00;;;;;;5033279;28;20108;-80
2023/03/31 03:15:12;;;;;;;6.63;2.40;;;13.90;81.80;;;;;;5055109;28;20025;-80
2023/03/31 03:17:44;;;;;;;7.35;2.10;;;14.00;82.00;;;;;;5067052;28;20474;-83
2023/03/31 03:20:10;;;;;;;;;;;14.00;81.20;;;;;;5048292;28;20475;-80
2023/03/31 03:22:37;;;;;;;9.60;3.00;;;14.00;81.60;;;;;;5053737;28;20346;-80
2023/03/31 03:25:08;;;;;;;10.18;3.65;;;13.90;81.80;;;;;;5053462;28;20028;-81
2023/03/31 03:27:34;;;;;;;7.57;3.40;;;13.90;81.80;;;;;;5050959;28;20025;-82
2023/03/31 03:30:05;;;;;;;9.73;3.60;;;13.90;81.60;;;;;;5052038;28;20057;-80
2023/03/31 03:32:32;;;;;;;7.40;3.30;;;13.90;81.50;;;;;;5053235;28;20021;-82
2023/03/31 03:34:59;;;;;;;12.20;3.75;;;13.90;80.90;;;;;;5052060;28;20474;-81
2023/03/31 03:37:25;;;;;;;15.20;4.10;;;13.90;80.70;;;;;;5051537;28;20031;-81
2023/03/31 03:39:50;;;;;;;11.95;4.22;;;13.90;80.40;;;;;;5053251;28;20092;-82
2023/03/31 03:42:16;;;;;;;12.77;4.63;;;13.90;80.80;;;;;;5056687;28;20029;-81
2023/03/31 03:44:42;;;;;;;10.48;3.80;;;13.90;80.10;;;;;;5052094;28;20021;-81
2023/03/31 03:47:08;;;;;;;14.20;5.25;;;13.80;80.70;;;;;;5051856;28;20021;-83
2023/03/31 03:49:33;;;;;;;8.80;4.90;;;13.80;81.20;;;;;;5055759;28;20028;-79
2023/03/31 03:51:59;;;;;;;8.07;2.78;;;13.80;81.50;;;;;;5052579;28;20017;-81
2023/03/31 03:54:25;;;;;;;9.55;3.42;;;13.70;81.60;;;;;;5050891;28;20021;-82
2023/03/31 03:56:51;;;;;;;26.67;12.82;;;13.70;82.50;;;;;;5050004;28;20075;-79
2023/03/31 03:59:16;;;;;;;34.72;16.83;;;13.70;83.20;;;;;;5051893;28;20095;-79
2023/03/31 04:01:42;;;;;;;24.35;11.35;;;13.60;84.00;;;;;;5051832;28;20021;-81
2023/03/31 04:04:08;;;;;;;19.02;8.90;;;13.50;84.60;;;;;;5051998;28;20071;-81
2023/03/31 04:06:34;;;;;;;16.52;7.57;;;13.50;85.10;;;;;;5052129;28;20070;-80
2023/03/31 04:09:00;;;;;;;12.65;5.97;;;13.40;85.60;;;;;;5052734;28;20087;-81
2023/03/31 04:11:26;;;;;;;13.00;6.60;;;13.40;86.00;;;;;;5051979;28;20236;-78
2023/03/31 04:13:52;;;;;;;16.00;6.35;;;13.40;86.90;;;;;;5053319;28;20028;-80
2023/03/31 04:16:18;;;;;;;10.27;5.15;;;13.30;87.30;;;;;;5051471;28;20021;-81
2023/03/31 04:18:44;;;;;;;13.77;6.00;;;13.30;87.90;;;;;;5053019;28;20079;-79
2023/03/31 04:21:14;;;;;;;10.80;5.03;;;13.20;88.70;;;;;;5055543;28;20025;-80
2023/03/31 04:23:47;;;;;;;21.73;6.88;;;13.20;88.90;;;;;;5055183;28;20017;-80
2023/03/31 04:26:14;;;;;;;29.83;10.77;;;13.20;88.80;;;;;;5055230;28;20021;-79
2023/03/31 04:28:41;;;;;;;45.70;17.30;;;13.20;90.00;;;;;;5055143;28;20409;-79
2023/03/31 04:31:14;;;;;;;66.32;38.63;;;13.10;90.70;;;;;;5055238;28;20063;-79
2023/03/31 04:33:40;;;;;;;36.63;17.02;;;13.10;90.30;;;;;;5056911;28;20100;-80
2023/03/31 04:36:19;;;;;;;39.40;20.77;;;13.10;90.60;;;;;;5054943;28;20525;-82
2023/03/31 04:38:46;;;;;;;30.75;15.65;;;13.10;91.10;;;;;;5056823;28;20095;-80
2023/03/31 04:41:13;;;;;;;37.72;16.73;;;13.10;91.20;;;;;;5054903;28;20021;-82
2023/03/31 04:43:39;;;;;;;38.03;16.42;;;13.00;91.50;;;;;;5054863;28;20083;-82
2023/03/31 04:46:05;;;;;;;37.45;15.57;;;12.90;91.90;;;;;;5054946;28;20033;-80
2023/03/31 04:48:30;;;;;;;37.78;14.00;;;12.90;91.90;;;;;;5055108;28;20057;-82
2023/03/31 04:50:56;;;;;;;35.03;15.75;;;12.90;92.90;;;;;;5054591;28;20131;-81
2023/03/31 04:53:22;;;;;;;31.83;12.43;;;12.80;94.00;;;;;;5054952;28;20052;-82
2023/03/31 04:55:49;;;;;;;37.70;16.38;;;12.70;94.00;;;;;;5056567;28;20036;-80
2023/03/31 04:58:15;;;;;;;39.65;19.08;;;12.60;94.70;;;;;;5054289;28;20048;-81
2023/03/31 05:00:41;;;;;;;42.33;18.45;;;12.60;96.50;;;;;;5054801;28;20474;-81
2023/03/31 05:03:08;;;;;;;42.80;19.48;;;12.50;96.80;;;;;;5056062;28;20036;-79
2023/03/31 05:05:34;;;;;;;46.15;19.13;;;12.50;98.50;;;;;;5054517;28;20021;-82
2023/03/31 05:07:59;;;;;;;50.47;21.08;;;12.50;98.80;;;;;;5054706;28;20032;-82
2023/03/31 05:10:25;;;;;;;47.28;21.10;;;12.40;99.30;;;;;;5054407;28;20036;-79
2023/03/31 05:12:51;;;;;;;47.20;22.10;;;12.30;99.90;;;;;;5054458;28;20021;-79
2023/03/31 05:15:17;;;;;;;58.58;23.20;;;12.30;99.90;;;;;;5055486;28;20029;-80
2023/03/31 05:17:42;;;;;;;90.13;33.20;;;12.30;99.90;;;;;;5054100;28;20028;-79
2023/03/31 05:20:09;;;;;;;68.20;26.67;;;12.20;99.90;;;;;;5054133;28;20467;-81
2023/03/31 05:22:37;;;;;;;58.10;24.50;;;12.20;99.90;;;;;;5055632;28;20029;-79
2023/03/31 05:25:05;;;;;;;58.13;22.35;;;12.20;99.90;;;;;;5053897;28;20025;-83
2023/03/31 05:27:31;;;;;;;44.67;21.00;;;12.20;99.90;;;;;;5055807;28;20047;-82
2023/03/31 05:29:57;;;;;;;32.65;12.25;;;12.30;99.90;;;;;;5053805;28;20424;-79
2023/03/31 05:32:23;;;;;;;35.50;12.07;;;12.40;99.90;;;;;;5055239;28;20024;-81
2023/03/31 05:34:51;;;;;;;35.35;13.63;;;12.50;99.90;;;;;;5054334;28;20032;-85
2023/03/31 05:37:19;;;;;;;43.95;17.80;;;12.60;99.90;;;;;;5054171;28;20025;-80
2023/03/31 05:39:44;;;;;;;56.78;22.02;;;12.70;99.90;;;;;;5055119;28;20029;-82
2023/03/31 05:42:10;;;;;;;62.38;26.70;;;12.80;99.90;;;;;;5055030;28;20028;-80
2023/03/31 05:44:36;;;;;;;28.17;12.15;;;13.00;99.90;;;;;;5053936;28;20029;-79
2023/03/31 05:47:02;;;;;;;27.83;10.27;;;13.00;99.40;;;;;;5053304;28;20367;-80
2023/03/31 05:49:28;;;;;;;26.27;12.18;;;13.20;98.80;;;;;;5053764;28;20102;-80
2023/03/31 05:51:55;;;;;;;30.42;13.93;;;13.20;98.40;;;;;;5055130;28;20386;-81
2023/03/31 05:54:21;;;;;;;32.35;15.60;;;13.30;99.10;;;;;;5053181;28;20503;-79
2023/03/31 05:56:47;;;;;;;39.33;17.85;;;13.40;98.70;;;;;;5052867;28;20028;-80
2023/03/31 05:59:13;;;;;;;32.60;12.68;;;13.60;97.40;;;;;;5055173;28;20044;-80
2023/03/31 06:01:39;;;;;;;27.67;11.15;;;13.80;96.20;;;;;;5054685;28;20024;-79
2023/03/31 06:04:05;;;;;;;19.45;8.50;;;14.00;95.20;;;;;;5054439;28;20408;-81
2023/03/31 06:06:34;;;;;;;35.92;9.75;;;14.20;93.40;;;;;;5054304;28;20056;-81
2023/03/31 06:09:00;;;;;;;18.50;8.18;;;14.40;93.10;;;;;;5054556;28;20025;-82
2023/03/31 06:11:26;;;;;;;24.67;8.15;;;14.50;90.80;;;;;;5053056;28;20028;-80
2023/03/31 06:13:51;;;;;;;22.10;7.13;;;14.70;89.20;;;;;;5054405;28;20470;-80
2023/03/31 06:16:18;;;;;;;18.50;5.60;;;14.90;86.30;;;;;;5053368;28;20444;-81
2023/03/31 06:18:44;;;;;;;15.48;5.65;;;15.00;80.10;;;;;;5054731;28;20021;-80
2023/03/31 06:21:15;;;;;;;13.20;4.97;;;15.20;79.80;;;;;;5054579;28;20517;-80
2023/03/31 06:23:43;;;;;;;12.40;4.87;;;15.30;78.30;;;;;;5053267;28;20455;-80
2023/03/31 06:26:18;;;;;;;23.60;6.63;;;15.40;78.60;;;;;;5053227;28;20021;-79
2023/03/31 06:28:45;;;;;;;9.43;4.18;;;15.50;78.50;;;;;;5054342;28;20020;-80
2023/03/31 06:31:13;;;;;;;8.85;2.63;;;15.50;76.00;;;;;;5053056;28;20036;-80
2023/03/31 06:33:40;;;;;;;16.38;5.45;;;15.60;78.50;;;;;;5054374;28;20021;-80
2023/03/31 06:36:07;;;;;;;13.45;5.15;;;15.70;77.00;;;;;;5052667;28;20107;-80
2023/03/31 06:38:34;;;;;;;14.57;3.25;;;15.80;78.50;;;;;;5053034;28;20021;-82
2023/03/31 06:41:01;;;;;;;9.30;3.42;;;16.00;76.70;;;;;;5053393;28;20082;-82
2023/03/31 06:43:27;;;;;;;8.65;2.85;;;16.30;76.20;;;;;;5052609;28;20459;-81
2023/03/31 06:45:53;;;;;;;8.88;3.15;;;16.50;75.30;;;;;;5053151;28;20028;-83
2023/03/31 06:48:19;;;;;;;12.85;3.72;;;16.70;75.30;;;;;;5052853;28;20031;-81
2023/03/31 06:50:45;;;;;;;13.73;4.47;;;17.00;71.10;;;;;;5052410;28;20029;-82
2023/03/31 06:53:11;;;;;;;12.05;4.40;;;17.20;70.60;;;;;;5052822;28;20028;-81
2023/03/31 06:55:37;;;;;;;13.63;3.92;;;17.40;68.70;;;;;;5053699;28;20021;-81
2023/03/31 06:58:03;;;;;;;7.30;3.45;;;17.60;65.20;;;;;;5053950;28;20124;-81
2023/03/31 07:00:32;;;;;;;14.30;4.53;;;17.70;65.00;;;;;;5053577;28;20467;-82
2023/03/31 07:02:58;;;;;;;5.80;3.08;;;17.70;62.90;;;;;;5052571;28;20064;-82
2023/03/31 07:05:26;;;;;;;9.82;3.78;;;17.90;60.30;;;;;;5052614;28;20045;-81
2023/03/31 07:07:59;;;;;;;9.27;2.70;;;18.10;60.30;;;;;;5052581;28;20439;-81
2023/03/31 07:10:27;;;;;;;7.00;3.17;;;18.10;58.10;;;;;;5052193;28;20025;-83
2023/03/31 07:12:53;;;;;;;15.32;3.17;;;18.30;57.90;;;;;;5051532;28;20017;-82
2023/03/31 07:15:19;;;;;;;8.73;2.67;;;18.30;57.60;;;;;;5052499;28;20024;-82
2023/03/31 07:17:49;;;;;;;8.50;2.17;;;18.40;57.20;;;;;;5053414;28;20024;-81
2023/03/31 07:20:17;;;;;;;10.63;2.67;;;18.40;55.50;;;;;;5053722;28;20021;-79
2023/03/31 07:22:47;;;;;;;7.15;1.75;;;18.50;56.50;;;;;;5053451;28;20434;-81
2023/03/31 07:25:16;;;;;;;7.22;2.67;;;18.30;54.00;;;;;;5053413;28;20108;-79
2023/03/31 07:27:42;;;;;;;7.63;3.47;;;18.50;54.70;;;;;;5053119;28;20025;-80
2023/03/31 07:30:14;;;;;;;7.93;3.30;;;18.60;54.80;;;;;;5051899;28;20031;-80
2023/03/31 07:32:40;;;;;;;4.95;2.40;;;18.50;54.70;;;;;;5051881;28;20048;-82
2023/03/31 07:35:07;;;;;;;17.15;2.72;;;18.50;53.00;;;;;;5053276;28;20049;-80
2023/03/31 07:37:43;;;;;;;5.30;2.13;;;18.70;54.10;;;;;;5052228;28;20072;-80
2023/03/31 07:40:11;;;;;;;4.53;2.08;;;18.90;53.10;;;;;;5052240;28;20536;-81
2023/03/31 07:42:37;;;;;;;5.57;2.05;;;18.60;51.30;;;;;;5051926;28;20516;-81
2023/03/31 07:45:07;;;;;;;7.50;2.40;;;18.50;51.90;;;;;;5052319;28;20017;-81
2023/03/31 07:47:33;;;;;;;8.55;2.42;;;18.60;51.70;;;;;;5052364;28;20344;-82
2023/03/31 07:49:58;;;;;;;6.32;2.55;;;19.00;51.20;;;;;;5051835;28;20043;-82
2023/03/31 07:52:24;;;;;;;8.63;1.95;;;19.20;51.40;;;;;;5052539;28;20379;-80
2023/03/31 07:54:50;;;;;;;7.85;2.75;;;19.20;48.80;;;;;;5057320;28;20076;-81
2023/03/31 07:57:18;;;;;;;10.77;3.58;;;19.20;49.10;;;;;;5056529;28;20021;-84
2023/03/31 07:59:45;;;;;;;8.20;2.45;;;19.50;49.80;;;;;;5056081;28;20025;-82
2023/03/31 08:02:16;;;;;;;9.05;1.98;;;19.60;48.90;;;;;;5056559;28;20048;-82
2023/03/31 08:04:42;;;;;;;7.60;2.30;;;19.80;48.80;;;;;;5056238;28;20094;-83
2023/03/31 08:07:10;;;;;;;12.75;2.33;;;20.00;48.10;;;;;;5057007;28;20135;-81
2023/03/31 08:09:36;;;;;;;9.15;2.70;;;20.10;47.80;;;;;;5056731;28;20021;-82
2023/03/31 08:12:03;;;;;;;13.88;2.53;;;20.40;49.50;;;;;;5057125;28;20044;-80
2023/03/31 08:14:29;;;;;;;8.02;3.40;;;20.30;48.00;;;;;;5055713;28;20423;-82
2023/03/31 08:16:56;;;;;;;9.50;3.15;;;20.40;49.50;;;;;;5055066;28;20111;-83
2023/03/31 08:19:23;;;;;;;10.15;2.10;;;20.60;47.30;;;;;;5056532;28;20035;-83
2023/03/31 08:21:50;;;;;;;10.13;2.63;;;20.70;46.30;;;;;;5056526;28;20363;-83
2023/03/31 08:24:16;;;;;;;8.88;2.65;;;20.50;47.10;;;;;;5055204;28;20024;-81
2023/03/31 08:26:41;;;;;;;5.35;2.40;;;20.50;46.50;;;;;;5057021;28;20021;-83
2023/03/31 08:29:07;;;;;;;7.57;2.22;;;20.50;45.80;;;;;;5055007;28;20028;-82
2023/03/31 08:31:33;;;;;;;6.90;2.35;;;20.70;46.50;;;;;;5054680;28;20029;-80
2023/03/31 08:33:58;;;;;;;5.00;1.95;;;20.50;46.10;;;;;;5056611;28;20074;-82
2023/03/31 08:36:25;;;;;;;9.07;3.22;;;20.90;46.50;;;;;;5055829;28;20024;-83
2023/03/31 08:38:53;;;;;;;10.02;2.78;;;21.30;47.00;;;;;;5054825;28;20120;-84
2023/03/31 08:41:50;;;;;;;11.38;2.78;;;21.60;45.30;;;;;;5056178;28;20368;-85
2023/03/31 08:44:57;;;;;;;5.70;2.38;;;21.40;44.10;;;;;;5054871;28;20462;-82
2023/03/31 08:47:26;;;;;;;11.07;3.08;;;21.60;43.70;;;;;;5055187;28;20017;-81
2023/03/31 08:49:58;;;;;;;6.72;2.75;;;21.70;44.90;;;;;;5056236;28;20087;-82
2023/03/31 08:52:32;;;;;;;8.05;3.22;;;21.70;43.90;;;;;;5055829;28;20032;-81
2023/03/31 08:55:03;;;;;;;9.95;4.55;;;22.00;43.90;;;;;;5055045;28;20053;-82
2023/03/31 08:57:50;;;;;;;14.25;3.22;;;21.70;42.50;;;;;;5055996;28;20024;-85
2023/03/31 09:00:17;;;;;;;9.88;2.53;;;21.90;44.00;;;;;;5054319;28;20032;-82
2023/03/31 09:03:29;;;;;;;9.60;2.78;;;21.80;42.60;;;;;;5055989;28;20024;-81
2023/03/31 09:06:00;;;;;;;8.55;2.22;;;21.70;43.20;;;;;;5054457;28;20040;-83
2023/03/31 09:08:41;;;;;;;9.35;2.58;;;21.80;43.20;;;;;;5054842;28;20032;-83
2023/03/31 09:11:33;;;;;;;7.87;3.07;;;21.90;42.40;;;;;;5054656;28;20118;-84
2023/03/31 09:14:18;;;;;;;6.60;2.05;;;22.20;41.70;;;;;;5053915;28;20382;-82
2023/03/31 09:16:52;;;;;;;7.47;2.92;;;22.10;41.70;;;;;;5055627;28;20025;-83
2023/03/31 09:19:42;;;;;;;12.07;3.20;;;22.10;41.00;;;;;;5055149;28;20458;-82
2023/03/31 09:22:17;;;;;;;6.80;2.22;;;22.40;41.10;;;;;;5054448;28;20028;-83
2023/03/31 09:24:47;;;;;;;8.23;2.58;;;22.60;42.00;;;;;;5055468;28;20048;-82
2023/03/31 09:27:14;;;;;;;9.68;2.60;;;;;;;;;;5055048;28;20032;-83
2023/03/31 09:30:00;;;;;;;13.85;3.38;;;23.10;39.90;;;;;;5055539;28;20025;-82
2023/03/31 09:32:29;;;;;;;6.68;2.60;;;22.80;40.90;;;;;;5055304;28;20031;-83
2023/03/31 09:35:17;;;;;;;15.60;3.70;;;23.10;40.40;;;;;;5054116;28;20020;-81
2023/03/31 09:37:43;;;;;;;12.30;3.97;;;23.00;39.50;;;;;;5054254;28;20021;-84
2023/03/31 09:40:26;;;;;;;10.35;2.67;;;22.90;40.70;;;;;;5055055;28;20147;-81
2023/03/31 09:43:00;;;;;;;13.38;4.63;;;22.80;40.90;;;;;;5055706;28;20082;-83
2023/03/31 09:45:29;;;;;;;10.18;4.60;;;;;;;;;;5053952;28;20067;-83
2023/03/31 09:47:57;;;;;;;12.98;4.95;;;23.30;39.00;;;;;;5053632;28;20455;-82
2023/03/31 09:50:25;;;;;;;13.73;4.03;;;;;;;;;;5053762;28;20025;-82
2023/03/31 09:52:59;;;;;;;7.20;2.63;;;23.00;39.00;;;;;;5053829;28;20358;-82
2023/03/31 09:55:32;;;;;;;7.65;2.85;;;;;;;;;;5054736;28;20478;-82
2023/03/31 09:58:02;;;;;;;9.30;2.72;;;;;;;;;;5054854;28;20483;-83
2023/03/31 10:00:27;;;;;;;7.10;2.95;;;23.70;37.50;;;;;;5054988;28;20491;-80
2023/03/31 10:02:55;;;;;;;11.20;2.80;;;23.60;38.20;;;;;;5054411;28;20028;-82
2023/03/31 10:05:23;;;;;;;6.97;3.08;;;;;;;;;;5053577;28;20075;-81
2023/03/31 10:07:49;;;;;;;8.07;3.85;;;23.90;53.80;;;;;;5053561;28;20463;-83
2023/03/31 10:10:29;;;;;;;8.20;3.80;;;23.80;38.40;;;;;;5054524;28;20021;-81
2023/03/31 10:12:55;;;;;;;13.70;3.35;;;23.20;38.20;;;;;;5055217;28;20029;-81
2023/03/31 10:15:25;;;;;;;7.88;2.30;;;23.10;38.40;;;;;;5054362;28;20329;-83
2023/03/31 10:17:50;;;;;;;6.55;3.50;;;23.50;36.70;;;;;;5054094;28;20027;-84
2023/03/31 10:20:27;;;;;;;13.10;3.90;;;;;;;;;;5053332;28;20025;-82
2023/03/31 10:22:52;;;;;;;6.85;2.35;;;24.00;44.40;;;;;;5052958;28;20021;-83
2023/03/31 10:25:21;;;;;;;11.13;2.10;;;;;;;;;;5054517;28;20075;-81
2023/03/31 10:27:49;;;;;;;8.93;2.05;;;;;;;;;;5054208;28;20024;-82
2023/03/31 10:30:20;;;;;;;6.05;2.75;;;;;;;;;;5052788;28;20032;-83
2023/03/31 10:32:47;;;;;;;7.28;2.20;;;;;;;;;;5053239;28;20056;-82
2023/03/31 10:35:19;;;;;;;7.60;2.42;;;;;;;;;;5054388;28;20021;-82
2023/03/31 10:37:47;;;;;;;5.53;2.67;;;;;;;;;;5054092;28;20467;-82
2023/03/31 10:40:13;;;;;;;9.98;3.13;;;;;;;;;;5053008;28;20021;-81
2023/03/31 10:42:39;;;;;;;7.20;2.40;;;;;;;;;;5054276;28;20013;-81
2023/03/31 10:45:12;;;;;;;9.93;3.42;;;;;;;;;;5053897;28;20092;-82
2023/03/31 10:47:39;;;;;;;9.35;2.15;;;;;;;;;;5052973;28;20028;-83
2023/03/31 10:50:12;;;;;;;4.40;2.30;;;;;;;;;;5052428;28;20024;-82
2023/03/31 10:52:43;;;;;;;6.38;2.33;;;;;;;;;;5054284;28;20478;-82
2023/03/31 10:55:12;;;;;;;7.88;2.80;;;;;;;;;;5052813;28;20016;-82
2023/03/31 10:57:53;;;;;;;6.20;2.45;;;;;;;;;;5053972;28;20068;-81
2023/03/31 11:00:46;;;;;;;8.48;2.78;;;;;;;;;;5052794;28;20345;-81
2023/03/31 11:03:31;;;;;;;9.32;1.88;;;;;;;;;;5054043;28;20009;-82
2023/03/31 11:06:15;;;;;;;8.07;2.42;;;;;;;;;;5052349;28;20071;-83
2023/03/31 11:09:00;;;;;;;7.45;2.80;;;;;;;;;;5052701;28;20048;-82
2023/03/31 11:11:45;;;;;;;9.32;2.55;;;;;;;;;;5052194;28;20368;-81
2023/03/31 11:14:17;;;;;;;6.47;1.83;;;;;;;;;;5052650;28;20033;-81
2023/03/31 11:16:43;;;;;;;5.63;1.80;;;;;;;;;;5054266;28;20032;-84
2023/03/31 11:19:28;;;;;;;4.03;2.03;;;;;;;;;;5053450;28;20107;-82
2023/03/31 11:21:57;;;;;;;5.70;1.88;;;;;;;;;;5052736;28;20021;-82
2023/03/31 11:24:26;;;;;;;6.70;2.55;;;;;;;;;;5053721;28;20017;-81
2023/03/31 11:26:58;;;;;;;6.90;2.08;;;;;;;;;;5052165;28;20107;-82
2023/03/31 11:29:37;;;;;;;8.70;3.45;;;;;;;;;;5056423;28;20009;-82
2023/03/31 11:32:14;;;;;;;6.10;2.70;;;;;;;;;;5056237;28;20028;-81
2023/03/31 11:34:41;;;;;;;7.63;2.30;;;;;;;;;;5056686;28;20337;-81
2023/03/31 11:37:07;;;;;;;10.98;3.53;;;;;;;;;;5056466;28;20020;-81
2023/03/31 11:39:51;;;;;;;7.55;3.42;;;;;;;;;;5056293;28;20027;-81
2023/03/31 11:42:20;;;;;;;7.07;2.10;;;;;;;;;;5057616;28;20352;-82
2023/03/31 11:44:52;;;;;;;4.68;2.40;;;;;;;;;;5057324;28;20448;-83
2023/03/31 11:47:30;;;;;;;13.80;3.13;;;;;;;;;;5055949;28;20032;-82
2023/03/31 11:49:58;;;;;;;10.13;2.30;;;;;;;;;;5057503;28;20025;-84
2023/03/31 11:52:30;;;;;;;8.15;2.70;;;;;;;;;;5057408;28;20021;-82
2023/03/31 11:55:14;;;;;;;4.68;1.83;;;;;;;;;;5055849;28;20017;-81
2023/03/31 11:57:59;;;;;;;9.35;2.72;;;;;;;;;;5057423;28;20045;-82
2023/03/31 12:00:28;;;;;;;15.15;5.57;;;;;;;;;;5056647;28;20371;-83
2023/03/31 12:02:56;;;;;;;11.00;3.25;;;;;;;;;;5056010;28;20025;-82
2023/03/31 12:05:24;;;;;;;6.95;3.28;;;;;;;;;;5057191;28;20020;-82
2023/03/31 12:07:59;;;;;;;7.82;2.60;;;;;;;;;;5055808;28;20028;-83
2023/03/31 12:10:31;;;;;;;6.10;2.20;;;;;;;;;;5055727;28;20021;-83
2023/03/31 12:13:16;;;;;;;5.40;2.42;;;;;;;;;;5056787;28;20029;-81
2023/03/31 12:15:44;;;;;;;7.47;2.85;;;;;;;;;;5055425;28;20458;-82
2023/03/31 12:18:21;;;;;;;8.77;4.00;;;;;;;;;;5055359;28;20013;-82
2023/03/31 12:20:50;;;;;;;7.35;3.00;;;;;;;;;;5057022;28;20182;-82
2023/03/31 12:23:23;;;;;;;7.75;3.40;;;;;;;;;;5056573;28;20020;-81
2023/03/31 12:26:12;;;;;;;6.93;2.65;;;;;;;;;;5055550;28;20111;-83
2023/03/31 12:28:39;;;;;;;11.55;3.83;;;;;;;;;;5055423;28;20052;-80
2023/03/31 12:31:06;;;;;;;10.65;3.33;;;;;;;;;;5055462;28;20024;-82
2023/03/31 12:33:37;;;;;;;8.27;3.30;;;;;;;;;;5056690;28;20447;-83
2023/03/31 12:36:14;;;;;;;5.68;1.80;;;;;;;;;;5055253;28;20025;-82
2023/03/31 12:38:40;;;;;;;9.05;3.22;;;;;;;;;;5055049;28;20028;-82
2023/03/31 12:41:13;;;;;;;11.00;2.80;;;;;;;;;;5053679;28;20039;-81
2023/03/31 12:43:52;;;;;;;5.32;2.22;;;;;;;;;;5052191;28;20527;-83
2023/03/31 12:46:33;;;;;;;7.43;2.72;;;;;;;;;;5055086;28;20020;-83
2023/03/31 12:49:21;;;;;;;5.90;1.83;;;;;;;;;;5054838;28;20048;-83
2023/03/31 12:51:50;;;;;;;7.40;3.20;;;;;;;;;;5055101;28;20029;-81
2023/03/31 12:54:36;;;;;;;9.35;4.30;;;;;;;;;;5054608;28;20021;-82
2023/03/31 12:57:04;;;;;;;5.38;2.80;;;;;;;;;;5054043;28;20029;-83
2023/03/31 12:59:35;;;;;;;12.48;2.20;;;;;;;;;;5053805;28;20048;-81
2023/03/31 13:02:16;;;;;;;8.93;3.40;;;;;;;;;;5056142;28;20463;-83
2023/03/31 13:04:43;;;;;;;5.72;2.60;;;;;;;;;;5054271;28;20065;-84
2023/03/31 13:07:13;;;;;;;7.43;2.70;;;;;;;;;;5056291;28;20017;-81
2023/03/31 13:09:41;;;;;;;11.55;4.05;;;;;;;;;;5053795;28;20028;-81
2023/03/31 13:12:08;;;;;;;9.35;1.85;;;;;;;;;;5054370;28;20031;-84
2023/03/31 13:14:39;;;;;;;4.90;2.22;;;;;;;;;;5054649;28;20451;-84
2023/03/31 13:17:11;;;;;;;5.72;2.95;;;;;;;;;;5054506;28;20521;-82
2023/03/31 13:19:39;;;;;;;3.97;2.08;;;;;;;;;;5055825;28;20025;-82
2023/03/31 13:22:05;;;;;;;7.35;2.00;;;;;;;;;;5055486;28;20017;-83
2023/03/31 13:24:32;;;;;;;7.25;2.42;;;;;;;;;;5055138;28;20021;-84
2023/03/31 13:27:01;;;;;;;6.13;2.38;;;;;;;;;;5055462;28;20371;-83
2023/03/31 13:29:41;;;;;;;7.30;1.75;;;;;;;;;;5054241;28;20025;-81